sensor_id;sensor_type;location;lat;lon;timestamp;temperature;humidity
78448;SHT31;67742;51.972;5.682;2023-06-26T00:00:53;26.1;53.2
78448;SHT31;67742;51.972;5.682;2023-06-26T00:03:22;26.0;53.0
78448;SHT31;67742;51.972;5.682;2023-06-26T00:05:50;26.0;53.3
78448;SHT31;67742;51.972;5.682;2023-06-26T00:08:19;26.0;53.1
78448;SHT31;67742;51.972;5.682;2023-06-26T00:10:48;26.0;53.0
78448;SHT31;67742;51.972;5.682;2023-06-26T00:13:17;26.0;53.3
78448;SHT31;67742;51.972;5.682;2023-06-26T00:15:46;25.9;53.5
78448;SHT31;67742;51.972;5.682;2023-06-26T00:18:15;25.9;53.3
78448;SHT31;67742;51.972;5.682;2023-06-26T00:20:43;25.9;53.4
78448;SHT31;67742;51.972;5.682;2023-06-26T00:23:12;25.9;53.5
78448;SHT31;67742;51.972;5.682;2023-06-26T00:25:45;25.9;53.4
78448;SHT31;67742;51.972;5.682;2023-06-26T00:28:14;25.8;53.8
78448;SHT31;67742;51.972;5.682;2023-06-26T00:30:42;25.8;53.7
78448;SHT31;67742;51.972;5.682;2023-06-26T00:33:11;25.8;53.8
78448;SHT31;67742;51.972;5.682;2023-06-26T00:35:39;25.8;53.9
78448;SHT31;67742;51.972;5.682;2023-06-26T00:38:08;25.7;53.5
78448;SHT31;67742;51.972;5.682;2023-06-26T00:40:36;25.7;53.6
78448;SHT31;67742;51.972;5.682;2023-06-26T00:43:05;25.7;53.8
78448;SHT31;67742;51.972;5.682;2023-06-26T00:45:33;25.7;53.6
78448;SHT31;67742;51.972;5.682;2023-06-26T00:48:02;25.7;53.8
78448;SHT31;67742;51.972;5.682;2023-06-26T00:50:31;25.7;54.0
78448;SHT31;67742;51.972;5.682;2023-06-26T00:53:02;25.6;54.2
78448;SHT31;67742;51.972;5.682;2023-06-26T00:55:31;25.6;54.4
78448;SHT31;67742;51.972;5.682;2023-06-26T00:58:00;25.6;54.3
78448;SHT31;67742;51.972;5.682;2023-06-26T01:00:29;25.6;54.7
78448;SHT31;67742;51.972;5.682;2023-06-26T01:02:57;25.6;54.8
78448;SHT31;67742;51.972;5.682;2023-06-26T01:05:27;25.6;54.8
78448;SHT31;67742;51.972;5.682;2023-06-26T01:07:57;25.6;54.6
78448;SHT31;67742;51.972;5.682;2023-06-26T01:10:26;25.6;54.6
78448;SHT31;67742;51.972;5.682;2023-06-26T01:12:57;25.5;54.7
78448;SHT31;67742;51.972;5.682;2023-06-26T01:15:27;25.5;54.8
78448;SHT31;67742;51.972;5.682;2023-06-26T01:17:57;25.5;55.0
78448;SHT31;67742;51.972;5.682;2023-06-26T01:20:30;25.5;54.7
78448;SHT31;67742;51.972;5.682;2023-06-26T01:23:07;25.5;55.0
78448;SHT31;67742;51.972;5.682;2023-06-26T01:25:54;25.5;55.1
78448;SHT31;67742;51.972;5.682;2023-06-26T01:28:19;25.5;54.8
78448;SHT31;67742;51.972;5.682;2023-06-26T01:30:50;25.4;54.6
78448;SHT31;67742;51.972;5.682;2023-06-26T01:33:19;25.4;55.0
78448;SHT31;67742;51.972;5.682;2023-06-26T01:35:49;25.4;54.7
78448;SHT31;67742;51.972;5.682;2023-06-26T01:38:20;25.4;54.4
78448;SHT31;67742;51.972;5.682;2023-06-26T01:40:50;25.3;53.6
78448;SHT31;67742;51.972;5.682;2023-06-26T01:43:29;25.3;53.5
78448;SHT31;67742;51.972;5.682;2023-06-26T01:46:04;25.2;53.3
78448;SHT31;67742;51.972;5.682;2023-06-26T01:48:46;25.2;53.3
78448;SHT31;67742;51.972;5.682;2023-06-26T01:51:17;25.1;53.1
78448;SHT31;67742;51.972;5.682;2023-06-26T01:53:53;25.1;53.0
78448;SHT31;67742;51.972;5.682;2023-06-26T01:56:24;25.0;52.5
78448;SHT31;67742;51.972;5.682;2023-06-26T01:58:55;25.0;52.4
78448;SHT31;67742;51.972;5.682;2023-06-26T02:01:24;24.9;52.4
78448;SHT31;67742;51.972;5.682;2023-06-26T02:03:52;24.9;52.5
78448;SHT31;67742;51.972;5.682;2023-06-26T02:06:20;24.8;52.8
78448;SHT31;67742;51.972;5.682;2023-06-26T02:08:49;24.8;52.9
78448;SHT31;67742;51.972;5.682;2023-06-26T02:11:17;24.7;53.1
78448;SHT31;67742;51.972;5.682;2023-06-26T02:13:46;24.6;53.3
78448;SHT31;67742;51.972;5.682;2023-06-26T02:16:14;24.6;53.5
78448;SHT31;67742;51.972;5.682;2023-06-26T02:18:43;24.6;53.6
78448;SHT31;67742;51.972;5.682;2023-06-26T02:21:13;24.5;53.8
78448;SHT31;67742;51.972;5.682;2023-06-26T02:23:41;24.5;54.0
78448;SHT31;67742;51.972;5.682;2023-06-26T02:26:10;24.4;54.5
78448;SHT31;67742;51.972;5.682;2023-06-26T02:28:39;24.3;54.7
78448;SHT31;67742;51.972;5.682;2023-06-26T02:31:08;24.3;55.1
78448;SHT31;67742;51.972;5.682;2023-06-26T02:33:36;24.2;55.3
78448;SHT31;67742;51.972;5.682;2023-06-26T02:36:06;24.1;55.5
78448;SHT31;67742;51.972;5.682;2023-06-26T02:38:34;24.1;55.8
78448;SHT31;67742;51.972;5.682;2023-06-26T02:41:03;24.0;55.9
78448;SHT31;67742;51.972;5.682;2023-06-26T02:43:31;24.0;56.1
78448;SHT31;67742;51.972;5.682;2023-06-26T02:46:00;23.9;56.2
78448;SHT31;67742;51.972;5.682;2023-06-26T02:48:28;23.9;56.5
78448;SHT31;67742;51.972;5.682;2023-06-26T02:50:57;23.9;56.4
78448;SHT31;67742;51.972;5.682;2023-06-26T02:53:25;23.8;56.6
78448;SHT31;67742;51.972;5.682;2023-06-26T02:55:54;23.8;57.0
78448;SHT31;67742;51.972;5.682;2023-06-26T02:58:22;23.7;57.0
78448;SHT31;67742;51.972;5.682;2023-06-26T03:00:51;23.7;57.3
78448;SHT31;67742;51.972;5.682;2023-06-26T03:03:20;23.7;57.3
78448;SHT31;67742;51.972;5.682;2023-06-26T03:05:48;23.6;57.4
78448;SHT31;67742;51.972;5.682;2023-06-26T03:08:17;23.6;57.8
78448;SHT31;67742;51.972;5.682;2023-06-26T03:10:45;23.6;57.6
78448;SHT31;67742;51.972;5.682;2023-06-26T03:13:14;23.5;57.9
78448;SHT31;67742;51.972;5.682;2023-06-26T03:15:43;23.5;58.2
78448;SHT31;67742;51.972;5.682;2023-06-26T03:18:11;23.5;58.3
78448;SHT31;67742;51.972;5.682;2023-06-26T03:20:40;23.4;58.4
78448;SHT31;67742;51.972;5.682;2023-06-26T03:23:08;23.4;58.9
78448;SHT31;67742;51.972;5.682;2023-06-26T03:25:39;23.4;58.7
78448;SHT31;67742;51.972;5.682;2023-06-26T03:28:07;23.4;59.0
78448;SHT31;67742;51.972;5.682;2023-06-26T03:30:36;23.3;59.6
78448;SHT31;67742;51.972;5.682;2023-06-26T03:33:04;23.3;59.7
78448;SHT31;67742;51.972;5.682;2023-06-26T03:35:33;23.3;59.7
78448;SHT31;67742;51.972;5.682;2023-06-26T03:38:03;23.2;59.9
78448;SHT31;67742;51.972;5.682;2023-06-26T03:40:31;23.2;59.7
78448;SHT31;67742;51.972;5.682;2023-06-26T03:43:02;23.2;60.4
78448;SHT31;67742;51.972;5.682;2023-06-26T03:45:30;23.2;60.3
78448;SHT31;67742;51.972;5.682;2023-06-26T03:47:59;23.2;60.5
78448;SHT31;67742;51.972;5.682;2023-06-26T03:50:27;23.1;60.4
78448;SHT31;67742;51.972;5.682;2023-06-26T03:52:56;23.1;60.6
78448;SHT31;67742;51.972;5.682;2023-06-26T03:55:25;23.1;60.7
78448;SHT31;67742;51.972;5.682;2023-06-26T03:57:54;23.1;60.9
78448;SHT31;67742;51.972;5.682;2023-06-26T04:00:22;23.1;60.9
78448;SHT31;67742;51.972;5.682;2023-06-26T04:02:53;23.1;60.9
78448;SHT31;67742;51.972;5.682;2023-06-26T04:05:21;23.0;61.2
78448;SHT31;67742;51.972;5.682;2023-06-26T04:07:52;23.0;61.1
78448;SHT31;67742;51.972;5.682;2023-06-26T04:10:21;23.0;61.3
78448;SHT31;67742;51.972;5.682;2023-06-26T04:12:49;23.0;61.6
78448;SHT31;67742;51.972;5.682;2023-06-26T04:15:18;23.0;61.8
78448;SHT31;67742;51.972;5.682;2023-06-26T04:17:47;23.0;62.0
78448;SHT31;67742;51.972;5.682;2023-06-26T04:20:15;23.0;62.0
78448;SHT31;67742;51.972;5.682;2023-06-26T04:22:44;23.0;62.1
78448;SHT31;67742;51.972;5.682;2023-06-26T04:25:13;22.9;62.3
78448;SHT31;67742;51.972;5.682;2023-06-26T04:27:43;22.9;62.3
78448;SHT31;67742;51.972;5.682;2023-06-26T04:30:14;22.9;62.7
78448;SHT31;67742;51.972;5.682;2023-06-26T04:32:43;22.9;62.4
78448;SHT31;67742;51.972;5.682;2023-06-26T04:35:11;22.8;62.4
78448;SHT31;67742;51.972;5.682;2023-06-26T04:37:40;22.8;62.6
78448;SHT31;67742;51.972;5.682;2023-06-26T04:40:09;22.8;62.5
78448;SHT31;67742;51.972;5.682;2023-06-26T04:42:38;22.8;62.6
78448;SHT31;67742;51.972;5.682;2023-06-26T04:45:10;22.8;62.7
78448;SHT31;67742;51.972;5.682;2023-06-26T04:47:38;22.7;62.9
78448;SHT31;67742;51.972;5.682;2023-06-26T04:50:07;22.7;62.9
78448;SHT31;67742;51.972;5.682;2023-06-26T04:52:36;22.7;62.9
78448;SHT31;67742;51.972;5.682;2023-06-26T04:55:06;22.7;62.8
78448;SHT31;67742;51.972;5.682;2023-06-26T04:57:37;22.7;62.9
78448;SHT31;67742;51.972;5.682;2023-06-26T05:00:09;22.7;63.0
78448;SHT31;67742;51.972;5.682;2023-06-26T05:02:38;22.6;63.1
78448;SHT31;67742;51.972;5.682;2023-06-26T05:05:07;22.6;63.0
78448;SHT31;67742;51.972;5.682;2023-06-26T05:07:37;22.6;63.1
78448;SHT31;67742;51.972;5.682;2023-06-26T05:10:07;22.6;63.4
78448;SHT31;67742;51.972;5.682;2023-06-26T05:12:36;22.6;63.4
78448;SHT31;67742;51.972;5.682;2023-06-26T05:15:05;22.6;63.2
78448;SHT31;67742;51.972;5.682;2023-06-26T05:17:34;22.6;63.3
78448;SHT31;67742;51.972;5.682;2023-06-26T05:20:03;22.6;63.5
78448;SHT31;67742;51.972;5.682;2023-06-26T05:22:32;22.6;63.2
78448;SHT31;67742;51.972;5.682;2023-06-26T05:25:06;22.6;63.1
78448;SHT31;67742;51.972;5.682;2023-06-26T05:27:38;22.6;62.2
78448;SHT31;67742;51.972;5.682;2023-06-26T05:30:08;22.6;61.4
78448;SHT31;67742;51.972;5.682;2023-06-26T05:32:40;22.6;60.5
78448;SHT31;67742;51.972;5.682;2023-06-26T05:35:10;22.6;60.5
78448;SHT31;67742;51.972;5.682;2023-06-26T05:37:41;22.6;60.3
78448;SHT31;67742;51.972;5.682;2023-06-26T05:40:11;22.6;59.8
78448;SHT31;67742;51.972;5.682;2023-06-26T05:42:41;22.6;59.2
78448;SHT31;67742;51.972;5.682;2023-06-26T05:45:11;22.5;59.6
78448;SHT31;67742;51.972;5.682;2023-06-26T05:47:42;22.5;59.8
78448;SHT31;67742;51.972;5.682;2023-06-26T05:50:12;22.5;59.2
78448;SHT31;67742;51.972;5.682;2023-06-26T05:52:41;22.5;59.4
78448;SHT31;67742;51.972;5.682;2023-06-26T05:55:11;22.5;59.4
78448;SHT31;67742;51.972;5.682;2023-06-26T05:57:43;22.5;59.2
78448;SHT31;67742;51.972;5.682;2023-06-26T06:00:14;22.5;59.0
78448;SHT31;67742;51.972;5.682;2023-06-26T06:02:43;22.5;58.9
78448;SHT31;67742;51.972;5.682;2023-06-26T06:05:12;22.5;58.9
78448;SHT31;67742;51.972;5.682;2023-06-26T06:07:40;22.5;58.8
78448;SHT31;67742;51.972;5.682;2023-06-26T06:10:12;22.5;58.5
78448;SHT31;67742;51.972;5.682;2023-06-26T06:12:40;22.5;58.4
78448;SHT31;67742;51.972;5.682;2023-06-26T06:15:09;22.5;57.6
78448;SHT31;67742;51.972;5.682;2023-06-26T06:17:38;22.5;57.6
78448;SHT31;67742;51.972;5.682;2023-06-26T06:20:07;22.5;57.2
78448;SHT31;67742;51.972;5.682;2023-06-26T06:22:36;22.5;56.0
78448;SHT31;67742;51.972;5.682;2023-06-26T06:25:05;22.5;56.5
78448;SHT31;67742;51.972;5.682;2023-06-26T06:27:34;22.5;56.2
78448;SHT31;67742;51.972;5.682;2023-06-26T06:30:03;22.5;56.3
78448;SHT31;67742;51.972;5.682;2023-06-26T06:32:34;22.5;56.0
78448;SHT31;67742;51.972;5.682;2023-06-26T06:35:02;22.5;56.9
78448;SHT31;67742;51.972;5.682;2023-06-26T06:37:36;22.6;57.4
78448;SHT31;67742;51.972;5.682;2023-06-26T06:40:06;22.6;57.3
78448;SHT31;67742;51.972;5.682;2023-06-26T06:42:39;22.6;57.1
78448;SHT31;67742;51.972;5.682;2023-06-26T06:45:09;22.7;57.4
78448;SHT31;67742;51.972;5.682;2023-06-26T06:47:38;22.7;56.6
78448;SHT31;67742;51.972;5.682;2023-06-26T06:50:07;22.7;55.9
78448;SHT31;67742;51.972;5.682;2023-06-26T06:52:38;22.8;54.9
78448;SHT31;67742;51.972;5.682;2023-06-26T06:55:09;22.8;55.1
78448;SHT31;67742;51.972;5.682;2023-06-26T06:57:39;22.8;54.8
78448;SHT31;67742;51.972;5.682;2023-06-26T07:00:11;22.8;54.5
78448;SHT31;67742;51.972;5.682;2023-06-26T07:02:43;22.8;55.5
78448;SHT31;67742;51.972;5.682;2023-06-26T07:05:13;22.8;56.2
78448;SHT31;67742;51.972;5.682;2023-06-26T07:07:43;22.8;56.6
78448;SHT31;67742;51.972;5.682;2023-06-26T07:10:13;22.8;56.8
78448;SHT31;67742;51.972;5.682;2023-06-26T07:12:42;22.8;56.8
78448;SHT31;67742;51.972;5.682;2023-06-26T07:15:12;22.9;56.8
78448;SHT31;67742;51.972;5.682;2023-06-26T07:17:40;22.9;56.8
78448;SHT31;67742;51.972;5.682;2023-06-26T07:20:11;22.9;56.9
78448;SHT31;67742;51.972;5.682;2023-06-26T07:22:42;22.9;57.3
78448;SHT31;67742;51.972;5.682;2023-06-26T07:25:12;22.9;57.5
78448;SHT31;67742;51.972;5.682;2023-06-26T07:27:42;22.9;57.4
78448;SHT31;67742;51.972;5.682;2023-06-26T07:30:12;23.0;57.3
78448;SHT31;67742;51.972;5.682;2023-06-26T07:32:44;23.0;57.4
78448;SHT31;67742;51.972;5.682;2023-06-26T07:35:13;23.0;57.5
78448;SHT31;67742;51.972;5.682;2023-06-26T07:37:41;23.1;57.1
78448;SHT31;67742;51.972;5.682;2023-06-26T07:40:11;23.1;56.6
78448;SHT31;67742;51.972;5.682;2023-06-26T07:42:40;23.1;57.2
78448;SHT31;67742;51.972;5.682;2023-06-26T07:45:09;23.1;56.0
78448;SHT31;67742;51.972;5.682;2023-06-26T07:47:39;23.1;56.2
78448;SHT31;67742;51.972;5.682;2023-06-26T07:50:10;23.1;56.0
78448;SHT31;67742;51.972;5.682;2023-06-26T07:52:45;23.2;56.3
78448;SHT31;67742;51.972;5.682;2023-06-26T07:55:14;23.2;56.0
78448;SHT31;67742;51.972;5.682;2023-06-26T07:57:43;23.2;55.8
78448;SHT31;67742;51.972;5.682;2023-06-26T08:00:16;23.3;55.6
78448;SHT31;67742;51.972;5.682;2023-06-26T08:02:45;23.3;56.7
78448;SHT31;67742;51.972;5.682;2023-06-26T08:05:16;23.3;56.8
78448;SHT31;67742;51.972;5.682;2023-06-26T08:07:45;23.4;55.7
78448;SHT31;67742;51.972;5.682;2023-06-26T08:10:14;23.5;55.3
78448;SHT31;67742;51.972;5.682;2023-06-26T08:12:42;23.5;55.5
78448;SHT31;67742;51.972;5.682;2023-06-26T08:15:12;23.5;56.0
78448;SHT31;67742;51.972;5.682;2023-06-26T08:17:40;23.5;55.5
78448;SHT31;67742;51.972;5.682;2023-06-26T08:20:10;23.6;55.6
78448;SHT31;67742;51.972;5.682;2023-06-26T08:22:39;23.6;55.4
78448;SHT31;67742;51.972;5.682;2023-06-26T08:25:09;23.6;55.2
78448;SHT31;67742;51.972;5.682;2023-06-26T08:27:37;23.6;55.1
78448;SHT31;67742;51.972;5.682;2023-06-26T08:30:07;23.6;55.5
78448;SHT31;67742;51.972;5.682;2023-06-26T08:32:36;23.7;55.2
78448;SHT31;67742;51.972;5.682;2023-06-26T08:35:06;23.7;55.5
78448;SHT31;67742;51.972;5.682;2023-06-26T08:37:36;23.7;54.0
78448;SHT31;67742;51.972;5.682;2023-06-26T08:40:06;23.7;54.4
78448;SHT31;67742;51.972;5.682;2023-06-26T08:42:36;23.8;54.7
78448;SHT31;67742;51.972;5.682;2023-06-26T08:45:05;23.8;52.8
78448;SHT31;67742;51.972;5.682;2023-06-26T08:47:35;23.8;52.5
78448;SHT31;67742;51.972;5.682;2023-06-26T08:50:08;23.9;52.6
78448;SHT31;67742;51.972;5.682;2023-06-26T08:52:46;23.9;52.5
78448;SHT31;67742;51.972;5.682;2023-06-26T08:55:21;23.9;52.5
78448;SHT31;67742;51.972;5.682;2023-06-26T08:57:52;24.0;51.9
78448;SHT31;67742;51.972;5.682;2023-06-26T09:00:22;24.0;51.6
78448;SHT31;67742;51.972;5.682;2023-06-26T09:02:51;24.0;50.8
78448;SHT31;67742;51.972;5.682;2023-06-26T09:05:20;24.1;48.2
78448;SHT31;67742;51.972;5.682;2023-06-26T09:07:49;24.1;47.9
78448;SHT31;67742;51.972;5.682;2023-06-26T09:10:20;24.0;48.5
78448;SHT31;67742;51.972;5.682;2023-06-26T09:12:52;24.0;48.0
78448;SHT31;67742;51.972;5.682;2023-06-26T09:15:25;24.0;48.5
78448;SHT31;67742;51.972;5.682;2023-06-26T09:17:56;24.0;48.5
78448;SHT31;67742;51.972;5.682;2023-06-26T09:20:27;24.0;48.9
78448;SHT31;67742;51.972;5.682;2023-06-26T09:23:00;24.0;49.3
78448;SHT31;67742;51.972;5.682;2023-06-26T09:25:29;24.0;49.6
78448;SHT31;67742;51.972;5.682;2023-06-26T09:27:59;24.1;49.2
78448;SHT31;67742;51.972;5.682;2023-06-26T09:30:27;24.1;49.5
78448;SHT31;67742;51.972;5.682;2023-06-26T09:32:56;24.1;49.1
78448;SHT31;67742;51.972;5.682;2023-06-26T09:35:27;24.1;49.7
78448;SHT31;67742;51.972;5.682;2023-06-26T09:37:56;24.1;48.3
78448;SHT31;67742;51.972;5.682;2023-06-26T09:40:26;24.1;47.6
78448;SHT31;67742;51.972;5.682;2023-06-26T09:43:04;24.1;48.5
78448;SHT31;67742;51.972;5.682;2023-06-26T09:45:34;24.1;48.4
78448;SHT31;67742;51.972;5.682;2023-06-26T09:48:03;24.1;48.1
78448;SHT31;67742;51.972;5.682;2023-06-26T09:50:34;24.0;47.9
78448;SHT31;67742;51.972;5.682;2023-06-26T09:53:11;24.0;48.5
78448;SHT31;67742;51.972;5.682;2023-06-26T09:55:43;24.0;48.4
78448;SHT31;67742;51.972;5.682;2023-06-26T09:58:13;24.0;47.8
78448;SHT31;67742;51.972;5.682;2023-06-26T10:00:44;24.0;47.4
78448;SHT31;67742;51.972;5.682;2023-06-26T10:03:12;24.0;46.8
78448;SHT31;67742;51.972;5.682;2023-06-26T10:05:41;24.0;47.5
78448;SHT31;67742;51.972;5.682;2023-06-26T10:08:11;24.0;46.4
78448;SHT31;67742;51.972;5.682;2023-06-26T10:10:41;24.1;47.2
78448;SHT31;67742;51.972;5.682;2023-06-26T10:13:15;24.1;46.3
78448;SHT31;67742;51.972;5.682;2023-06-26T10:15:46;24.2;45.9
78448;SHT31;67742;51.972;5.682;2023-06-26T10:18:17;24.2;46.6
78448;SHT31;67742;51.972;5.682;2023-06-26T10:20:48;24.2;47.0
78448;SHT31;67742;51.972;5.682;2023-06-26T10:23:19;24.3;45.0
78448;SHT31;67742;51.972;5.682;2023-06-26T10:25:51;24.3;45.2
78448;SHT31;67742;51.972;5.682;2023-06-26T10:28:22;24.3;44.7
78448;SHT31;67742;51.972;5.682;2023-06-26T10:30:53;24.3;44.7
78448;SHT31;67742;51.972;5.682;2023-06-26T10:33:23;24.4;45.2
78448;SHT31;67742;51.972;5.682;2023-06-26T10:35:52;24.5;44.0
78448;SHT31;67742;51.972;5.682;2023-06-26T10:38:21;24.6;43.6
78448;SHT31;67742;51.972;5.682;2023-06-26T10:40:49;24.7;43.2
78448;SHT31;67742;51.972;5.682;2023-06-26T10:43:18;24.7;42.6
78448;SHT31;67742;51.972;5.682;2023-06-26T10:45:48;24.8;43.5
78448;SHT31;67742;51.972;5.682;2023-06-26T10:48:20;24.8;43.9
78448;SHT31;67742;51.972;5.682;2023-06-26T10:50:50;24.8;44.0
78448;SHT31;67742;51.972;5.682;2023-06-26T10:53:25;24.9;42.3
78448;SHT31;67742;51.972;5.682;2023-06-26T10:56:00;24.9;42.6
78448;SHT31;67742;51.972;5.682;2023-06-26T10:58:31;24.9;41.2
78448;SHT31;67742;51.972;5.682;2023-06-26T11:01:25;24.9;41.4
78448;SHT31;67742;51.972;5.682;2023-06-26T11:04:05;24.8;41.2
78448;SHT31;67742;51.972;5.682;2023-06-26T11:06:36;24.8;42.0
78448;SHT31;67742;51.972;5.682;2023-06-26T11:09:13;24.8;42.6
78448;SHT31;67742;51.972;5.682;2023-06-26T11:12:00;24.8;41.6
78448;SHT31;67742;51.972;5.682;2023-06-26T11:14:35;24.8;41.5
78448;SHT31;67742;51.972;5.682;2023-06-26T11:17:04;24.8;42.1
78448;SHT31;67742;51.972;5.682;2023-06-26T11:19:34;24.8;42.5
78448;SHT31;67742;51.972;5.682;2023-06-26T11:22:05;24.8;42.7
78448;SHT31;67742;51.972;5.682;2023-06-26T11:24:34;24.9;40.7
78448;SHT31;67742;51.972;5.682;2023-06-26T11:27:05;24.9;41.0
78448;SHT31;67742;51.972;5.682;2023-06-26T11:29:34;24.9;41.5
78448;SHT31;67742;51.972;5.682;2023-06-26T11:32:05;24.9;42.0
78448;SHT31;67742;51.972;5.682;2023-06-26T11:34:34;24.9;42.3
78448;SHT31;67742;51.972;5.682;2023-06-26T11:37:04;24.9;42.4
78448;SHT31;67742;51.972;5.682;2023-06-26T11:39:34;24.9;42.5
78448;SHT31;67742;51.972;5.682;2023-06-26T11:42:05;24.9;42.5
78448;SHT31;67742;51.972;5.682;2023-06-26T11:44:41;25.0;41.9
78448;SHT31;67742;51.972;5.682;2023-06-26T11:47:14;25.0;42.5
78448;SHT31;67742;51.972;5.682;2023-06-26T11:49:45;25.1;41.9
78448;SHT31;67742;51.972;5.682;2023-06-26T11:52:15;25.2;40.8
78448;SHT31;67742;51.972;5.682;2023-06-26T11:54:44;25.2;40.1
78448;SHT31;67742;51.972;5.682;2023-06-26T11:57:15;25.3;40.0
78448;SHT31;67742;51.972;5.682;2023-06-26T11:59:45;25.3;40.3
78448;SHT31;67742;51.972;5.682;2023-06-26T12:02:15;25.4;40.0
78448;SHT31;67742;51.972;5.682;2023-06-26T12:04:46;25.4;40.6
78448;SHT31;67742;51.972;5.682;2023-06-26T12:07:15;25.5;38.8
78448;SHT31;67742;51.972;5.682;2023-06-26T12:09:46;25.5;39.1
78448;SHT31;67742;51.972;5.682;2023-06-26T12:12:17;25.5;38.0
78448;SHT31;67742;51.972;5.682;2023-06-26T12:14:47;25.5;39.2
78448;SHT31;67742;51.972;5.682;2023-06-26T12:17:16;25.5;39.4
78448;SHT31;67742;51.972;5.682;2023-06-26T12:19:46;25.5;38.4
78448;SHT31;67742;51.972;5.682;2023-06-26T12:22:17;25.6;38.3
78448;SHT31;67742;51.972;5.682;2023-06-26T12:24:47;25.6;39.3
78448;SHT31;67742;51.972;5.682;2023-06-26T12:27:18;25.6;39.3
78448;SHT31;67742;51.972;5.682;2023-06-26T12:29:51;25.6;38.4
78448;SHT31;67742;51.972;5.682;2023-06-26T12:32:21;25.7;38.0
78448;SHT31;67742;51.972;5.682;2023-06-26T12:34:52;25.7;38.8
78448;SHT31;67742;51.972;5.682;2023-06-26T12:37:21;25.7;39.0
78448;SHT31;67742;51.972;5.682;2023-06-26T12:39:51;25.7;39.1
78448;SHT31;67742;51.972;5.682;2023-06-26T12:42:22;25.7;39.3
78448;SHT31;67742;51.972;5.682;2023-06-26T12:44:52;25.7;39.9
78448;SHT31;67742;51.972;5.682;2023-06-26T12:47:26;25.8;40.0
78448;SHT31;67742;51.972;5.682;2023-06-26T12:49:57;25.8;37.7
78448;SHT31;67742;51.972;5.682;2023-06-26T12:52:26;25.9;36.8
78448;SHT31;67742;51.972;5.682;2023-06-26T12:54:55;25.9;37.7
78448;SHT31;67742;51.972;5.682;2023-06-26T12:57:24;25.9;37.8
78448;SHT31;67742;51.972;5.682;2023-06-26T12:59:54;26.0;36.7
78448;SHT31;67742;51.972;5.682;2023-06-26T13:02:23;26.0;38.3
78448;SHT31;67742;51.972;5.682;2023-06-26T13:04:51;26.0;35.7
78448;SHT31;67742;51.972;5.682;2023-06-26T13:07:20;26.1;35.5
78448;SHT31;67742;51.972;5.682;2023-06-26T13:09:51;26.1;36.2
78448;SHT31;67742;51.972;5.682;2023-06-26T13:12:20;26.1;36.2
78448;SHT31;67742;51.972;5.682;2023-06-26T13:14:50;26.1;35.4
78448;SHT31;67742;51.972;5.682;2023-06-26T13:17:21;26.1;35.1
78448;SHT31;67742;51.972;5.682;2023-06-26T13:19:49;26.0;34.6
78448;SHT31;67742;51.972;5.682;2023-06-26T13:22:17;26.0;35.2
78448;SHT31;67742;51.972;5.682;2023-06-26T13:24:46;26.0;35.3
78448;SHT31;67742;51.972;5.682;2023-06-26T13:27:14;25.9;35.0
78448;SHT31;67742;51.972;5.682;2023-06-26T13:29:44;25.9;35.5
78448;SHT31;67742;51.972;5.682;2023-06-26T13:32:13;25.9;35.1
78448;SHT31;67742;51.972;5.682;2023-06-26T13:34:43;25.9;34.5
78448;SHT31;67742;51.972;5.682;2023-06-26T13:37:12;25.9;34.9
78448;SHT31;67742;51.972;5.682;2023-06-26T13:39:41;25.9;34.1
78448;SHT31;67742;51.972;5.682;2023-06-26T13:42:14;25.9;34.8
78448;SHT31;67742;51.972;5.682;2023-06-26T13:44:43;25.9;36.3
78448;SHT31;67742;51.972;5.682;2023-06-26T13:47:13;25.9;36.3
78448;SHT31;67742;51.972;5.682;2023-06-26T13:49:42;26.0;36.6
78448;SHT31;67742;51.972;5.682;2023-06-26T13:52:10;26.0;36.3
78448;SHT31;67742;51.972;5.682;2023-06-26T13:54:39;26.1;35.7
78448;SHT31;67742;51.972;5.682;2023-06-26T13:57:09;26.1;36.1
78448;SHT31;67742;51.972;5.682;2023-06-26T13:59:39;26.1;35.5
78448;SHT31;67742;51.972;5.682;2023-06-26T14:02:08;26.1;35.7
78448;SHT31;67742;51.972;5.682;2023-06-26T14:04:38;26.1;35.8
78448;SHT31;67742;51.972;5.682;2023-06-26T14:07:09;26.1;36.1
78448;SHT31;67742;51.972;5.682;2023-06-26T14:09:38;26.1;35.9
78448;SHT31;67742;51.972;5.682;2023-06-26T14:12:07;26.0;36.0
78448;SHT31;67742;51.972;5.682;2023-06-26T14:14:38;25.9;35.9
78448;SHT31;67742;51.972;5.682;2023-06-26T14:17:08;25.9;35.3
78448;SHT31;67742;51.972;5.682;2023-06-26T14:19:42;25.8;35.3
78448;SHT31;67742;51.972;5.682;2023-06-26T14:22:12;25.7;36.0
78448;SHT31;67742;51.972;5.682;2023-06-26T14:24:41;25.6;36.5
78448;SHT31;67742;51.972;5.682;2023-06-26T14:27:09;25.6;36.6
78448;SHT31;67742;51.972;5.682;2023-06-26T14:29:38;25.5;35.5
78448;SHT31;67742;51.972;5.682;2023-06-26T14:32:08;25.5;35.4
78448;SHT31;67742;51.972;5.682;2023-06-26T14:34:36;25.5;36.3
78448;SHT31;67742;51.972;5.682;2023-06-26T14:37:05;25.4;36.2
78448;SHT31;67742;51.972;5.682;2023-06-26T14:39:34;25.3;36.2
78448;SHT31;67742;51.972;5.682;2023-06-26T14:42:05;25.3;37.3
78448;SHT31;67742;51.972;5.682;2023-06-26T14:44:34;25.3;37.1
78448;SHT31;67742;51.972;5.682;2023-06-26T14:47:03;25.2;38.0
78448;SHT31;67742;51.972;5.682;2023-06-26T14:49:32;25.2;37.9
78448;SHT31;67742;51.972;5.682;2023-06-26T14:52:00;25.2;37.1
78448;SHT31;67742;51.972;5.682;2023-06-26T14:54:29;25.2;36.9
78448;SHT31;67742;51.972;5.682;2023-06-26T14:56:58;25.2;37.4
78448;SHT31;67742;51.972;5.682;2023-06-26T14:59:27;25.2;37.2
78448;SHT31;67742;51.972;5.682;2023-06-26T15:01:56;25.2;37.5
78448;SHT31;67742;51.972;5.682;2023-06-26T15:04:24;25.2;37.9
78448;SHT31;67742;51.972;5.682;2023-06-26T15:06:54;25.1;38.3
78448;SHT31;67742;51.972;5.682;2023-06-26T15:09:23;25.1;38.0
78448;SHT31;67742;51.972;5.682;2023-06-26T15:11:52;25.1;38.0
78448;SHT31;67742;51.972;5.682;2023-06-26T15:14:22;25.1;37.2
78448;SHT31;67742;51.972;5.682;2023-06-26T15:16:51;25.1;36.8
78448;SHT31;67742;51.972;5.682;2023-06-26T15:19:19;25.1;37.8
78448;SHT31;67742;51.972;5.682;2023-06-26T15:21:48;25.0;36.5
78448;SHT31;67742;51.972;5.682;2023-06-26T15:24:16;25.0;36.9
78448;SHT31;67742;51.972;5.682;2023-06-26T15:26:45;24.9;36.4
78448;SHT31;67742;51.972;5.682;2023-06-26T15:29:16;24.8;36.3
78448;SHT31;67742;51.972;5.682;2023-06-26T15:31:47;24.8;36.2
78448;SHT31;67742;51.972;5.682;2023-06-26T15:34:16;24.7;37.0
78448;SHT31;67742;51.972;5.682;2023-06-26T15:36:44;24.6;37.8
78448;SHT31;67742;51.972;5.682;2023-06-26T15:39:13;24.6;37.4
78448;SHT31;67742;51.972;5.682;2023-06-26T15:41:41;24.5;37.3
78448;SHT31;67742;51.972;5.682;2023-06-26T15:44:11;24.5;37.5
78448;SHT31;67742;51.972;5.682;2023-06-26T15:46:39;24.5;37.8
78448;SHT31;67742;51.972;5.682;2023-06-26T15:49:08;24.5;37.5
78448;SHT31;67742;51.972;5.682;2023-06-26T15:51:36;24.4;37.8
78448;SHT31;67742;51.972;5.682;2023-06-26T15:54:05;24.4;38.3
78448;SHT31;67742;51.972;5.682;2023-06-26T15:56:34;24.4;38.7
78448;SHT31;67742;51.972;5.682;2023-06-26T15:59:03;24.4;38.8
78448;SHT31;67742;51.972;5.682;2023-06-26T16:01:31;24.4;38.8
78448;SHT31;67742;51.972;5.682;2023-06-26T16:04:00;24.4;38.9
78448;SHT31;67742;51.972;5.682;2023-06-26T16:06:28;24.5;38.5
78448;SHT31;67742;51.972;5.682;2023-06-26T16:08:57;24.5;38.8
78448;SHT31;67742;51.972;5.682;2023-06-26T16:11:25;24.5;38.4
78448;SHT31;67742;51.972;5.682;2023-06-26T16:13:55;24.5;38.5
78448;SHT31;67742;51.972;5.682;2023-06-26T16:16:24;24.5;38.7
78448;SHT31;67742;51.972;5.682;2023-06-26T16:18:53;24.5;38.4